Allerton, IL

1:49 PM CDT on September 04, 2015 (GMT -0500)
APRSWXNET | | Change Station
CLOSE
Current Station
Personal Weather Station
Location: Newman, IL
Elevation: 649 ft
Nearby Weather Stations

Elev 649 ft 39.80 °N, 87.98 °W | Updated 24 minutes ago

Partly Cloudy
Partly Cloudy
90 °F
Feels Like 96 °F
N
4
Wind Variable Wind from SW
Gusts 11.0 mph

Today
High -- | Low -- °F
--% Chance of Precip.
Yesterday
High -- | Low -- °F
Precip. -- in
6:22 AM 7:18 PM
Waning Gibbous, 57% visible
Pressure 30.01 in
Visibility 10.0 miles
Clouds Scattered Clouds 7000 ft
Scattered Clouds 8000 ft
Mostly Cloudy 11000 ft
Heat Index 96 °F
Dew Point 70 °F
Humidity 52%
Rainfall in
Snow Depth Not available.
UV 5 out of 12
Pollen 10.30 out of 12
Air Quality Not available.
Flu Activity Not available.
METAR KCMI 041753Z 22007KT 10SM SCT070 SCT080 BKN110 33/20 A3003 RMK AO2 SLP161 T03280200 10333 20200 58004
Pressure 30.01 in
Visibility 10.0 miles
Clouds Scattered Clouds 7000 ft
Scattered Clouds 8000 ft
Mostly Cloudy 11000 ft
Heat Index 96 °F
Dew Point 70 °F
Humidity 52%
Rainfall in
Snow Depth Not available.
UV 5 out of 12
Pollen 10.30 out of 12
Air Quality Not available.
Flu Activity Not available.
METAR KCMI 041753Z 22007KT 10SM SCT070 SCT080 BKN110 33/20 A3003 RMK AO2 SLP161 T03280200 10333 20200 58004

10-Day Weather Forecast

×

Almanac

Astronomy

Sep. 04, 2015 Rise Set
Actual Time
Civil Twilight
Nautical Twilight
Astronomical Twilight
Moon
Length of Visible Light
Length of Day
Tomorrow will be .
, % of the Moon is Illuminated

Today's Extremes

State Highs State Lows

Community

WunderPhotos

Upload Photos

1,852,262 photos uploaded!

WunderBlogs® & News

Nearby

Air Quality

  Air Quality AQ Index Pollutant
Not available.

Snow Depth

Station Depth Elevation

Earthquake Activity

City Distance Mag. Time & Date
Minimum magnitude displayed is 2.5.

Coastal Water Temperatures

Place Temperature

Stations

Nearby Weather Stations

Station Location Temp. Windchill Dew Point Humidity Wind Precip. Elev Updated Type